sensor_id;sensor_type;location;lat;lon;timestamp;P1;durP1;ratioP1;P2;durP2;ratioP2
55423;SDS011;41294;42.666;23.350;2022-09-09T00:01:34;10.00;;;8.80;;
55423;SDS011;41294;42.666;23.350;2022-09-09T00:04:35;15.27;;;8.80;;
55423;SDS011;41294;42.666;23.350;2022-09-09T00:07:20;12.07;;;8.68;;
55423;SDS011;41294;42.666;23.350;2022-09-09T00:10:28;11.18;;;8.40;;
55423;SDS011;41294;42.666;23.350;2022-09-09T00:15:57;10.63;;;8.88;;
55423;SDS011;41294;42.666;23.350;2022-09-09T00:21:17;9.90;;;8.38;;
55423;SDS011;41294;42.666;23.350;2022-09-09T00:23:55;10.02;;;8.65;;
55423;SDS011;41294;42.666;23.350;2022-09-09T00:28:59;10.13;;;8.95;;
55423;SDS011;41294;42.666;23.350;2022-09-09T00:31:29;11.68;;;9.05;;
55423;SDS011;41294;42.666;23.350;2022-09-09T00:34:12;10.18;;;7.95;;
55423;SDS011;41294;42.666;23.350;2022-09-09T00:36:40;11.05;;;9.52;;
55423;SDS011;41294;42.666;23.350;2022-09-09T00:39:09;10.35;;;8.35;;
55423;SDS011;41294;42.666;23.350;2022-09-09T00:42:26;10.13;;;8.88;;
55423;SDS011;41294;42.666;23.350;2022-09-09T00:47:24;10.98;;;8.50;;
55423;SDS011;41294;42.666;23.350;2022-09-09T00:56:00;12.10;;;9.48;;
55423;SDS011;41294;42.666;23.350;2022-09-09T00:59:23;8.95;;;8.07;;
55423;SDS011;41294;42.666;23.350;2022-09-09T01:01:46;11.00;;;8.70;;
55423;SDS011;41294;42.666;23.350;2022-09-09T01:04:13;13.35;;;9.68;;
55423;SDS011;41294;42.666;23.350;2022-09-09T01:06:48;9.90;;;8.65;;
55423;SDS011;41294;42.666;23.350;2022-09-09T01:14:54;12.90;;;9.48;;
55423;SDS011;41294;42.666;23.350;2022-09-09T01:20:17;11.77;;;9.05;;
55423;SDS011;41294;42.666;23.350;2022-09-09T01:22:57;10.55;;;9.45;;
55423;SDS011;41294;42.666;23.350;2022-09-09T01:28:33;10.13;;;9.18;;
55423;SDS011;41294;42.666;23.350;2022-09-09T01:31:02;10.75;;;9.57;;
55423;SDS011;41294;42.666;23.350;2022-09-09T01:33:31;12.32;;;9.65;;
55423;SDS011;41294;42.666;23.350;2022-09-09T01:38:44;10.18;;;9.05;;
55423;SDS011;41294;42.666;23.350;2022-09-09T01:41:10;12.15;;;9.65;;
55423;SDS011;41294;42.666;23.350;2022-09-09T01:43:35;13.88;;;9.77;;
55423;SDS011;41294;42.666;23.350;2022-09-09T01:46:01;10.60;;;9.30;;
55423;SDS011;41294;42.666;23.350;2022-09-09T01:48:28;10.63;;;9.52;;
55423;SDS011;41294;42.666;23.350;2022-09-09T01:50:54;10.88;;;9.85;;
55423;SDS011;41294;42.666;23.350;2022-09-09T01:53:20;12.13;;;9.45;;
55423;SDS011;41294;42.666;23.350;2022-09-09T02:04:02;11.57;;;9.57;;
55423;SDS011;41294;42.666;23.350;2022-09-09T02:06:39;10.77;;;9.57;;
55423;SDS011;41294;42.666;23.350;2022-09-09T02:09:06;14.25;;;10.35;;
55423;SDS011;41294;42.666;23.350;2022-09-09T02:11:37;13.68;;;10.05;;
55423;SDS011;41294;42.666;23.350;2022-09-09T02:14:08;11.95;;;9.45;;
55423;SDS011;41294;42.666;23.350;2022-09-09T02:16:38;10.65;;;9.60;;
55423;SDS011;41294;42.666;23.350;2022-09-09T02:19:19;12.95;;;9.98;;
55423;SDS011;41294;42.666;23.350;2022-09-09T02:21:56;12.15;;;10.18;;
55423;SDS011;41294;42.666;23.350;2022-09-09T02:24:24;11.10;;;9.98;;
55423;SDS011;41294;42.666;23.350;2022-09-09T02:26:52;10.27;;;9.05;;
55423;SDS011;41294;42.666;23.350;2022-09-09T02:29:28;13.55;;;10.38;;
55423;SDS011;41294;42.666;23.350;2022-09-09T02:31:58;10.30;;;9.18;;
55423;SDS011;41294;42.666;23.350;2022-09-09T02:34:28;11.23;;;10.02;;
55423;SDS011;41294;42.666;23.350;2022-09-09T02:36:56;10.88;;;9.82;;
55423;SDS011;41294;42.666;23.350;2022-09-09T02:39:25;11.60;;;9.90;;
55423;SDS011;41294;42.666;23.350;2022-09-09T02:41:50;12.07;;;9.50;;
55423;SDS011;41294;42.666;23.350;2022-09-09T02:44:16;12.80;;;9.82;;
55423;SDS011;41294;42.666;23.350;2022-09-09T02:52:01;11.02;;;9.77;;
55423;SDS011;41294;42.666;23.350;2022-09-09T02:54:32;10.73;;;9.65;;
55423;SDS011;41294;42.666;23.350;2022-09-09T02:57:06;11.02;;;9.93;;
55423;SDS011;41294;42.666;23.350;2022-09-09T02:59:36;14.60;;;9.88;;
55423;SDS011;41294;42.666;23.350;2022-09-09T03:02:03;11.68;;;10.07;;
55423;SDS011;41294;42.666;23.350;2022-09-09T03:04:30;10.60;;;9.50;;
55423;SDS011;41294;42.666;23.350;2022-09-09T03:06:58;10.30;;;9.30;;
55423;SDS011;41294;42.666;23.350;2022-09-09T03:09:24;11.82;;;9.90;;
55423;SDS011;41294;42.666;23.350;2022-09-09T03:11:51;12.30;;;9.48;;
55423;SDS011;41294;42.666;23.350;2022-09-09T03:14:17;11.68;;;9.20;;
55423;SDS011;41294;42.666;23.350;2022-09-09T03:16:46;11.55;;;10.10;;
55423;SDS011;41294;42.666;23.350;2022-09-09T03:19:12;12.98;;;10.10;;
55423;SDS011;41294;42.666;23.350;2022-09-09T03:21:37;14.05;;;10.40;;
55423;SDS011;41294;42.666;23.350;2022-09-09T03:24:04;11.90;;;10.43;;
55423;SDS011;41294;42.666;23.350;2022-09-09T03:26:31;12.43;;;9.90;;
55423;SDS011;41294;42.666;23.350;2022-09-09T03:28:57;11.65;;;10.20;;
55423;SDS011;41294;42.666;23.350;2022-09-09T03:31:25;11.60;;;10.40;;
55423;SDS011;41294;42.666;23.350;2022-09-09T03:33:56;13.82;;;10.45;;
55423;SDS011;41294;42.666;23.350;2022-09-09T03:36:23;11.10;;;9.85;;
55423;SDS011;41294;42.666;23.350;2022-09-09T03:38:51;11.07;;;9.95;;
55423;SDS011;41294;42.666;23.350;2022-09-09T03:41:16;11.25;;;9.77;;
55423;SDS011;41294;42.666;23.350;2022-09-09T03:43:43;11.18;;;10.18;;
55423;SDS011;41294;42.666;23.350;2022-09-09T03:46:08;10.57;;;9.57;;
55423;SDS011;41294;42.666;23.350;2022-09-09T03:48:34;13.15;;;10.50;;
55423;SDS011;41294;42.666;23.350;2022-09-09T03:50:59;11.77;;;9.93;;
55423;SDS011;41294;42.666;23.350;2022-09-09T03:53:26;11.23;;;10.07;;
55423;SDS011;41294;42.666;23.350;2022-09-09T03:55:53;12.57;;;10.98;;
55423;SDS011;41294;42.666;23.350;2022-09-09T03:58:21;11.45;;;10.27;;
55423;SDS011;41294;42.666;23.350;2022-09-09T04:00:55;12.20;;;9.82;;
55423;SDS011;41294;42.666;23.350;2022-09-09T04:03:22;11.25;;;9.95;;
55423;SDS011;41294;42.666;23.350;2022-09-09T04:05:50;12.70;;;10.35;;
55423;SDS011;41294;42.666;23.350;2022-09-09T04:08:16;12.32;;;10.68;;
55423;SDS011;41294;42.666;23.350;2022-09-09T04:10:44;12.30;;;10.68;;
55423;SDS011;41294;42.666;23.350;2022-09-09T04:13:11;11.85;;;10.65;;
55423;SDS011;41294;42.666;23.350;2022-09-09T04:15:39;16.05;;;11.07;;
55423;SDS011;41294;42.666;23.350;2022-09-09T04:18:06;15.52;;;10.68;;
55423;SDS011;41294;42.666;23.350;2022-09-09T04:20:33;15.38;;;11.25;;
55423;SDS011;41294;42.666;23.350;2022-09-09T04:22:59;21.00;;;12.02;;
55423;SDS011;41294;42.666;23.350;2022-09-09T04:25:24;12.05;;;10.55;;
55423;SDS011;41294;42.666;23.350;2022-09-09T04:27:54;12.07;;;10.07;;
55423;SDS011;41294;42.666;23.350;2022-09-09T04:30:20;14.60;;;10.65;;
55423;SDS011;41294;42.666;23.350;2022-09-09T04:32:46;13.52;;;9.80;;
55423;SDS011;41294;42.666;23.350;2022-09-09T04:35:11;14.70;;;8.95;;
55423;SDS011;41294;42.666;23.350;2022-09-09T04:37:37;13.25;;;8.95;;
55423;SDS011;41294;42.666;23.350;2022-09-09T04:40:03;10.20;;;8.60;;
55423;SDS011;41294;42.666;23.350;2022-09-09T04:42:28;13.50;;;9.23;;
55423;SDS011;41294;42.666;23.350;2022-09-09T04:44:54;14.02;;;9.00;;
55423;SDS011;41294;42.666;23.350;2022-09-09T04:47:19;14.23;;;9.98;;
55423;SDS011;41294;42.666;23.350;2022-09-09T04:49:45;12.10;;;9.35;;
55423;SDS011;41294;42.666;23.350;2022-09-09T04:52:10;12.90;;;8.98;;
55423;SDS011;41294;42.666;23.350;2022-09-09T04:54:36;14.93;;;9.02;;
55423;SDS011;41294;42.666;23.350;2022-09-09T04:57:01;11.55;;;9.38;;
55423;SDS011;41294;42.666;23.350;2022-09-09T04:59:27;11.40;;;8.02;;
55423;SDS011;41294;42.666;23.350;2022-09-09T05:01:52;11.15;;;8.43;;
55423;SDS011;41294;42.666;23.350;2022-09-09T05:04:20;12.68;;;7.63;;
55423;SDS011;41294;42.666;23.350;2022-09-09T05:06:45;14.90;;;8.18;;
55423;SDS011;41294;42.666;23.350;2022-09-09T05:09:11;10.35;;;8.50;;
55423;SDS011;41294;42.666;23.350;2022-09-09T05:11:37;14.82;;;9.80;;
55423;SDS011;41294;42.666;23.350;2022-09-09T05:14:03;15.27;;;9.20;;
55423;SDS011;41294;42.666;23.350;2022-09-09T05:16:29;13.38;;;8.88;;
55423;SDS011;41294;42.666;23.350;2022-09-09T05:18:55;12.32;;;8.32;;
55423;SDS011;41294;42.666;23.350;2022-09-09T05:21:22;13.00;;;8.40;;
55423;SDS011;41294;42.666;23.350;2022-09-09T05:23:50;11.60;;;8.60;;
55423;SDS011;41294;42.666;23.350;2022-09-09T05:26:17;12.85;;;9.40;;
55423;SDS011;41294;42.666;23.350;2022-09-09T05:28:44;12.90;;;9.02;;
55423;SDS011;41294;42.666;23.350;2022-09-09T05:31:10;11.70;;;9.07;;
55423;SDS011;41294;42.666;23.350;2022-09-09T05:33:38;9.98;;;8.95;;
55423;SDS011;41294;42.666;23.350;2022-09-09T05:36:09;10.38;;;9.13;;
55423;SDS011;41294;42.666;23.350;2022-09-09T05:38:38;12.60;;;7.57;;
55423;SDS011;41294;42.666;23.350;2022-09-09T05:41:04;10.38;;;7.18;;
55423;SDS011;41294;42.666;23.350;2022-09-09T05:43:30;11.00;;;9.70;;
55423;SDS011;41294;42.666;23.350;2022-09-09T05:46:04;11.02;;;6.70;;
55423;SDS011;41294;42.666;23.350;2022-09-09T05:48:37;12.90;;;7.22;;
55423;SDS011;41294;42.666;23.350;2022-09-09T05:51:04;11.80;;;7.32;;
55423;SDS011;41294;42.666;23.350;2022-09-09T05:53:34;11.40;;;6.68;;
55423;SDS011;41294;42.666;23.350;2022-09-09T05:58:30;7.55;;;5.47;;
55423;SDS011;41294;42.666;23.350;2022-09-09T06:01:03;5.75;;;5.10;;
55423;SDS011;41294;42.666;23.350;2022-09-09T06:03:28;6.90;;;5.18;;
55423;SDS011;41294;42.666;23.350;2022-09-09T06:06:00;8.80;;;5.75;;
55423;SDS011;41294;42.666;23.350;2022-09-09T06:08:30;7.63;;;5.82;;
55423;SDS011;41294;42.666;23.350;2022-09-09T06:11:06;6.00;;;5.40;;
55423;SDS011;41294;42.666;23.350;2022-09-09T06:13:33;10.18;;;6.40;;
55423;SDS011;41294;42.666;23.350;2022-09-09T06:16:02;10.77;;;6.32;;
55423;SDS011;41294;42.666;23.350;2022-09-09T06:18:29;8.77;;;6.43;;
55423;SDS011;41294;42.666;23.350;2022-09-09T06:23:26;7.78;;;5.80;;
55423;SDS011;41294;42.666;23.350;2022-09-09T06:26:02;15.40;;;5.65;;
55423;SDS011;41294;42.666;23.350;2022-09-09T06:28:27;7.82;;;5.78;;
55423;SDS011;41294;42.666;23.350;2022-09-09T06:31:03;11.15;;;6.47;;
55423;SDS011;41294;42.666;23.350;2022-09-09T06:33:37;9.57;;;6.75;;
55423;SDS011;41294;42.666;23.350;2022-09-09T06:36:07;10.02;;;6.53;;
55423;SDS011;41294;42.666;23.350;2022-09-09T06:38:36;6.30;;;5.60;;
55423;SDS011;41294;42.666;23.350;2022-09-09T06:41:02;14.27;;;6.70;;
55423;SDS011;41294;42.666;23.350;2022-09-09T06:43:28;9.82;;;6.60;;
55423;SDS011;41294;42.666;23.350;2022-09-09T06:48:25;12.40;;;5.78;;
55423;SDS011;41294;42.666;23.350;2022-09-09T06:51:13;8.60;;;5.45;;
55423;SDS011;41294;42.666;23.350;2022-09-09T06:53:39;12.57;;;5.38;;
55423;SDS011;41294;42.666;23.350;2022-09-09T06:58:43;8.48;;;5.15;;
55423;SDS011;41294;42.666;23.350;2022-09-09T07:01:11;7.25;;;4.80;;
55423;SDS011;41294;42.666;23.350;2022-09-09T07:03:38;8.15;;;5.35;;
55423;SDS011;41294;42.666;23.350;2022-09-09T07:06:05;8.77;;;5.40;;
55423;SDS011;41294;42.666;23.350;2022-09-09T07:08:32;9.68;;;5.43;;
55423;SDS011;41294;42.666;23.350;2022-09-09T07:11:04;11.07;;;6.03;;
55423;SDS011;41294;42.666;23.350;2022-09-09T07:13:31;8.35;;;5.65;;
55423;SDS011;41294;42.666;23.350;2022-09-09T07:16:07;7.18;;;5.82;;
55423;SDS011;41294;42.666;23.350;2022-09-09T07:18:34;8.77;;;5.15;;
55423;SDS011;41294;42.666;23.350;2022-09-09T07:21:01;6.43;;;5.30;;
55423;SDS011;41294;42.666;23.350;2022-09-09T07:23:28;10.88;;;5.53;;
55423;SDS011;41294;42.666;23.350;2022-09-09T07:25:55;9.50;;;5.88;;
55423;SDS011;41294;42.666;23.350;2022-09-09T07:28:21;5.53;;;4.53;;
55423;SDS011;41294;42.666;23.350;2022-09-09T07:30:57;8.15;;;4.97;;
55423;SDS011;41294;42.666;23.350;2022-09-09T07:33:26;10.40;;;6.00;;
55423;SDS011;41294;42.666;23.350;2022-09-09T07:35:51;12.35;;;5.40;;
55423;SDS011;41294;42.666;23.350;2022-09-09T07:38:18;8.32;;;5.28;;
55423;SDS011;41294;42.666;23.350;2022-09-09T07:40:45;9.27;;;5.50;;
55423;SDS011;41294;42.666;23.350;2022-09-09T07:43:11;7.15;;;5.20;;
55423;SDS011;41294;42.666;23.350;2022-09-09T07:45:36;7.75;;;4.97;;
55423;SDS011;41294;42.666;23.350;2022-09-09T07:48:03;6.47;;;5.57;;
55423;SDS011;41294;42.666;23.350;2022-09-09T07:50:29;5.03;;;4.53;;
55423;SDS011;41294;42.666;23.350;2022-09-09T07:52:54;5.15;;;4.38;;
55423;SDS011;41294;42.666;23.350;2022-09-09T07:55:20;7.65;;;5.10;;
55423;SDS011;41294;42.666;23.350;2022-09-09T07:57:50;6.00;;;4.40;;
55423;SDS011;41294;42.666;23.350;2022-09-09T08:00:15;6.82;;;4.43;;
55423;SDS011;41294;42.666;23.350;2022-09-09T08:02:41;9.30;;;4.60;;
55423;SDS011;41294;42.666;23.350;2022-09-09T08:05:07;6.60;;;4.10;;
55423;SDS011;41294;42.666;23.350;2022-09-09T08:07:32;6.97;;;4.70;;
55423;SDS011;41294;42.666;23.350;2022-09-09T08:09:57;6.10;;;4.22;;
55423;SDS011;41294;42.666;23.350;2022-09-09T08:12:24;7.22;;;4.78;;
55423;SDS011;41294;42.666;23.350;2022-09-09T08:14:49;8.05;;;4.75;;
55423;SDS011;41294;42.666;23.350;2022-09-09T08:17:16;9.30;;;4.47;;
55423;SDS011;41294;42.666;23.350;2022-09-09T08:19:42;5.00;;;4.32;;
55423;SDS011;41294;42.666;23.350;2022-09-09T08:22:07;5.38;;;4.30;;
55423;SDS011;41294;42.666;23.350;2022-09-09T08:24:33;6.95;;;4.22;;
55423;SDS011;41294;42.666;23.350;2022-09-09T08:26:59;5.45;;;4.63;;
55423;SDS011;41294;42.666;23.350;2022-09-09T08:29:24;8.30;;;4.78;;
55423;SDS011;41294;42.666;23.350;2022-09-09T08:31:54;5.25;;;4.75;;
55423;SDS011;41294;42.666;23.350;2022-09-09T08:34:22;5.00;;;4.50;;
55423;SDS011;41294;42.666;23.350;2022-09-09T08:36:49;6.53;;;4.57;;
55423;SDS011;41294;42.666;23.350;2022-09-09T08:39:16;5.10;;;4.63;;
55423;SDS011;41294;42.666;23.350;2022-09-09T08:47:12;5.85;;;4.47;;
55423;SDS011;41294;42.666;23.350;2022-09-09T08:57:58;10.65;;;4.32;;
55423;SDS011;41294;42.666;23.350;2022-09-09T09:00:40;7.38;;;4.90;;
55423;SDS011;41294;42.666;23.350;2022-09-09T09:11:37;7.18;;;4.93;;
55423;SDS011;41294;42.666;23.350;2022-09-09T09:14:14;8.68;;;4.57;;
55423;SDS011;41294;42.666;23.350;2022-09-09T09:19:40;5.00;;;4.50;;
55423;SDS011;41294;42.666;23.350;2022-09-09T09:24:53;7.07;;;4.82;;
55423;SDS011;41294;42.666;23.350;2022-09-09T09:30:29;6.95;;;4.90;;
55423;SDS011;41294;42.666;23.350;2022-09-09T09:33:02;10.98;;;5.60;;
55423;SDS011;41294;42.666;23.350;2022-09-09T09:35:38;6.00;;;4.55;;
55423;SDS011;41294;42.666;23.350;2022-09-09T09:38:37;8.02;;;4.50;;
55423;SDS011;41294;42.666;23.350;2022-09-09T09:40:56;8.27;;;5.47;;
55423;SDS011;41294;42.666;23.350;2022-09-09T09:43:27;9.75;;;5.65;;
55423;SDS011;41294;42.666;23.350;2022-09-09T09:45:54;6.68;;;4.80;;
55423;SDS011;41294;42.666;23.350;2022-09-09T09:48:22;7.97;;;4.28;;
55423;SDS011;41294;42.666;23.350;2022-09-09T09:51:08;7.63;;;4.85;;
55423;SDS011;41294;42.666;23.350;2022-09-09T09:53:37;10.18;;;6.00;;
55423;SDS011;41294;42.666;23.350;2022-09-09T09:56:05;6.93;;;5.22;;
55423;SDS011;41294;42.666;23.350;2022-09-09T09:58:33;5.47;;;4.97;;
55423;SDS011;41294;42.666;23.350;2022-09-09T10:01:26;11.38;;;5.90;;
55423;SDS011;41294;42.666;23.350;2022-09-09T10:04:02;21.35;;;5.22;;
55423;SDS011;41294;42.666;23.350;2022-09-09T10:06:39;11.15;;;4.88;;
55423;SDS011;41294;42.666;23.350;2022-09-09T10:17:50;8.48;;;4.55;;
55423;SDS011;41294;42.666;23.350;2022-09-09T10:26:49;11.25;;;4.57;;
55423;SDS011;41294;42.666;23.350;2022-09-09T10:51:14;7.72;;;5.05;;
55423;SDS011;41294;42.666;23.350;2022-09-09T10:57:05;7.63;;;6.25;;
55423;SDS011;41294;42.666;23.350;2022-09-09T10:59:40;6.93;;;5.78;;
55423;SDS011;41294;42.666;23.350;2022-09-09T11:02:25;11.13;;;5.43;;
55423;SDS011;41294;42.666;23.350;2022-09-09T11:04:54;7.53;;;5.78;;
55423;SDS011;41294;42.666;23.350;2022-09-09T11:07:43;8.70;;;5.88;;
55423;SDS011;41294;42.666;23.350;2022-09-09T11:10:16;11.13;;;6.30;;
55423;SDS011;41294;42.666;23.350;2022-09-09T11:12:50;7.35;;;5.88;;
55423;SDS011;41294;42.666;23.350;2022-09-09T11:15:29;9.57;;;6.07;;
55423;SDS011;41294;42.666;23.350;2022-09-09T11:18:01;8.75;;;6.07;;
55423;SDS011;41294;42.666;23.350;2022-09-09T11:20:29;8.65;;;5.95;;
55423;SDS011;41294;42.666;23.350;2022-09-09T11:23:04;8.50;;;6.25;;
55423;SDS011;41294;42.666;23.350;2022-09-09T11:25:42;9.25;;;5.78;;
55423;SDS011;41294;42.666;23.350;2022-09-09T11:36:43;8.10;;;6.22;;
55423;SDS011;41294;42.666;23.350;2022-09-09T11:44:39;12.73;;;6.78;;
55423;SDS011;41294;42.666;23.350;2022-09-09T11:47:15;11.93;;;7.47;;
55423;SDS011;41294;42.666;23.350;2022-09-09T11:49:44;9.02;;;7.18;;
55423;SDS011;41294;42.666;23.350;2022-09-09T11:57:58;13.35;;;7.05;;
55423;SDS011;41294;42.666;23.350;2022-09-09T12:00:36;15.70;;;7.35;;
55423;SDS011;41294;42.666;23.350;2022-09-09T12:06:17;8.73;;;6.50;;
55423;SDS011;41294;42.666;23.350;2022-09-09T12:08:52;11.65;;;6.72;;
55423;SDS011;41294;42.666;23.350;2022-09-09T12:11:28;21.13;;;7.68;;
55423;SDS011;41294;42.666;23.350;2022-09-09T12:13:56;14.35;;;7.40;;
55423;SDS011;41294;42.666;23.350;2022-09-09T12:16:36;8.50;;;6.25;;
55423;SDS011;41294;42.666;23.350;2022-09-09T12:19:24;12.55;;;7.03;;
55423;SDS011;41294;42.666;23.350;2022-09-09T12:22:00;12.82;;;7.30;;
55423;SDS011;41294;42.666;23.350;2022-09-09T12:24:56;13.73;;;7.07;;
55423;SDS011;41294;42.666;23.350;2022-09-09T12:27:34;11.95;;;7.82;;
55423;SDS011;41294;42.666;23.350;2022-09-09T12:30:12;10.50;;;6.97;;
55423;SDS011;41294;42.666;23.350;2022-09-09T12:32:40;11.00;;;7.07;;
55423;SDS011;41294;42.666;23.350;2022-09-09T12:35:22;10.27;;;7.32;;
55423;SDS011;41294;42.666;23.350;2022-09-09T12:37:56;10.88;;;7.15;;
55423;SDS011;41294;42.666;23.350;2022-09-09T12:42:53;12.63;;;7.18;;
55423;SDS011;41294;42.666;23.350;2022-09-09T12:45:23;20.23;;;8.13;;
55423;SDS011;41294;42.666;23.350;2022-09-09T12:47:55;14.70;;;7.38;;
55423;SDS011;41294;42.666;23.350;2022-09-09T12:50:25;12.73;;;6.80;;
55423;SDS011;41294;42.666;23.350;2022-09-09T12:52:55;11.57;;;6.72;;
55423;SDS011;41294;42.666;23.350;2022-09-09T12:55:25;17.85;;;7.15;;
55423;SDS011;41294;42.666;23.350;2022-09-09T12:57:55;11.43;;;7.07;;
55423;SDS011;41294;42.666;23.350;2022-09-09T13:00:23;17.05;;;7.30;;
55423;SDS011;41294;42.666;23.350;2022-09-09T13:02:54;9.20;;;6.68;;
55423;SDS011;41294;42.666;23.350;2022-09-09T13:08:03;10.07;;;6.88;;
55423;SDS011;41294;42.666;23.350;2022-09-09T13:10:31;10.18;;;6.75;;
55423;SDS011;41294;42.666;23.350;2022-09-09T13:13:00;10.30;;;7.30;;
55423;SDS011;41294;42.666;23.350;2022-09-09T13:15:28;10.95;;;6.85;;
55423;SDS011;41294;42.666;23.350;2022-09-09T13:17:59;17.08;;;7.55;;
55423;SDS011;41294;42.666;23.350;2022-09-09T13:20:29;14.15;;;7.70;;
55423;SDS011;41294;42.666;23.350;2022-09-09T13:22:56;14.18;;;7.65;;
55423;SDS011;41294;42.666;23.350;2022-09-09T13:25:29;10.77;;;6.93;;
55423;SDS011;41294;42.666;23.350;2022-09-09T13:28:02;13.95;;;7.70;;
55423;SDS011;41294;42.666;23.350;2022-09-09T13:30:30;12.45;;;6.93;;
55423;SDS011;41294;42.666;23.350;2022-09-09T13:33:01;15.05;;;7.38;;
55423;SDS011;41294;42.666;23.350;2022-09-09T13:35:27;10.95;;;8.00;;
55423;SDS011;41294;42.666;23.350;2022-09-09T13:37:53;16.02;;;7.35;;
55423;SDS011;41294;42.666;23.350;2022-09-09T13:40:22;10.73;;;7.28;;
55423;SDS011;41294;42.666;23.350;2022-09-09T13:42:51;10.57;;;7.22;;
55423;SDS011;41294;42.666;23.350;2022-09-09T13:45:21;15.75;;;8.00;;
55423;SDS011;41294;42.666;23.350;2022-09-09T13:47:48;15.57;;;8.02;;
55423;SDS011;41294;42.666;23.350;2022-09-09T13:50:25;15.90;;;7.38;;
55423;SDS011;41294;42.666;23.350;2022-09-09T13:52:53;15.77;;;7.75;;
55423;SDS011;41294;42.666;23.350;2022-09-09T13:55:20;11.25;;;7.10;;
55423;SDS011;41294;42.666;23.350;2022-09-09T13:57:55;18.42;;;8.20;;
55423;SDS011;41294;42.666;23.350;2022-09-09T14:00:26;12.52;;;6.78;;
55423;SDS011;41294;42.666;23.350;2022-09-09T14:02:53;13.23;;;7.38;;
55423;SDS011;41294;42.666;23.350;2022-09-09T14:05:21;12.38;;;7.35;;
55423;SDS011;41294;42.666;23.350;2022-09-09T14:07:47;12.13;;;7.78;;
55423;SDS011;41294;42.666;23.350;2022-09-09T14:10:14;16.85;;;7.88;;
55423;SDS011;41294;42.666;23.350;2022-09-09T14:12:40;13.50;;;7.53;;
55423;SDS011;41294;42.666;23.350;2022-09-09T14:15:06;10.15;;;7.30;;
55423;SDS011;41294;42.666;23.350;2022-09-09T14:17:34;10.57;;;7.45;;
55423;SDS011;41294;42.666;23.350;2022-09-09T14:20:01;9.10;;;6.90;;
55423;SDS011;41294;42.666;23.350;2022-09-09T14:22:33;14.13;;;7.47;;
55423;SDS011;41294;42.666;23.350;2022-09-09T14:24:59;10.52;;;6.82;;
55423;SDS011;41294;42.666;23.350;2022-09-09T14:27:24;11.30;;;7.40;;
55423;SDS011;41294;42.666;23.350;2022-09-09T14:29:51;15.43;;;6.65;;
55423;SDS011;41294;42.666;23.350;2022-09-09T14:32:17;14.38;;;6.82;;
55423;SDS011;41294;42.666;23.350;2022-09-09T14:34:43;10.85;;;6.82;;
55423;SDS011;41294;42.666;23.350;2022-09-09T14:37:08;9.80;;;6.57;;
55423;SDS011;41294;42.666;23.350;2022-09-09T14:39:33;11.60;;;6.57;;
55423;SDS011;41294;42.666;23.350;2022-09-09T14:41:59;13.88;;;7.10;;
55423;SDS011;41294;42.666;23.350;2022-09-09T14:44:27;12.00;;;6.63;;
55423;SDS011;41294;42.666;23.350;2022-09-09T14:46:53;11.93;;;6.75;;
55423;SDS011;41294;42.666;23.350;2022-09-09T14:49:19;16.15;;;7.13;;
55423;SDS011;41294;42.666;23.350;2022-09-09T14:51:44;16.02;;;7.57;;
55423;SDS011;41294;42.666;23.350;2022-09-09T14:54:10;14.52;;;7.18;;
55423;SDS011;41294;42.666;23.350;2022-09-09T14:56:35;12.63;;;7.00;;
55423;SDS011;41294;42.666;23.350;2022-09-09T14:59:01;16.50;;;6.93;;
55423;SDS011;41294;42.666;23.350;2022-09-09T15:01:28;12.52;;;6.80;;
55423;SDS011;41294;42.666;23.350;2022-09-09T15:03:58;9.20;;;6.68;;
55423;SDS011;41294;42.666;23.350;2022-09-09T15:06:26;14.65;;;6.78;;
55423;SDS011;41294;42.666;23.350;2022-09-09T15:08:54;21.65;;;7.82;;
55423;SDS011;41294;42.666;23.350;2022-09-09T15:11:23;14.68;;;7.78;;
55423;SDS011;41294;42.666;23.350;2022-09-09T15:13:50;9.88;;;7.20;;
55423;SDS011;41294;42.666;23.350;2022-09-09T15:16:20;11.95;;;6.90;;
55423;SDS011;41294;42.666;23.350;2022-09-09T15:18:50;12.80;;;6.97;;
55423;SDS011;41294;42.666;23.350;2022-09-09T15:21:19;11.93;;;6.90;;
55423;SDS011;41294;42.666;23.350;2022-09-09T15:23:47;11.90;;;7.43;;
55423;SDS011;41294;42.666;23.350;2022-09-09T15:26:13;13.82;;;7.00;;
55423;SDS011;41294;42.666;23.350;2022-09-09T15:28:42;13.77;;;7.68;;
55423;SDS011;41294;42.666;23.350;2022-09-09T15:31:13;19.20;;;7.60;;
55423;SDS011;41294;42.666;23.350;2022-09-09T15:33:45;11.10;;;7.65;;
55423;SDS011;41294;42.666;23.350;2022-09-09T15:36:19;15.07;;;8.57;;
55423;SDS011;41294;42.666;23.350;2022-09-09T15:38:46;20.23;;;8.38;;
55423;SDS011;41294;42.666;23.350;2022-09-09T15:41:12;14.35;;;8.13;;
55423;SDS011;41294;42.666;23.350;2022-09-09T15:43:38;12.55;;;9.50;;
55423;SDS011;41294;42.666;23.350;2022-09-09T15:48:41;18.77;;;12.07;;
55423;SDS011;41294;42.666;23.350;2022-09-09T15:51:09;17.80;;;11.90;;
55423;SDS011;41294;42.666;23.350;2022-09-09T15:53:35;15.57;;;11.23;;
55423;SDS011;41294;42.666;23.350;2022-09-09T15:56:02;16.27;;;9.98;;
55423;SDS011;41294;42.666;23.350;2022-09-09T15:58:30;14.10;;;10.68;;
55423;SDS011;41294;42.666;23.350;2022-09-09T16:03:29;21.75;;;13.13;;
55423;SDS011;41294;42.666;23.350;2022-09-09T16:06:06;18.58;;;10.40;;
55423;SDS011;41294;42.666;23.350;2022-09-09T16:08:36;24.25;;;10.15;;
55423;SDS011;41294;42.666;23.350;2022-09-09T16:13:37;20.08;;;9.80;;
55423;SDS011;41294;42.666;23.350;2022-09-09T16:16:03;19.75;;;11.15;;
55423;SDS011;41294;42.666;23.350;2022-09-09T16:18:36;17.63;;;10.23;;
55423;SDS011;41294;42.666;23.350;2022-09-09T16:21:14;16.92;;;10.20;;
55423;SDS011;41294;42.666;23.350;2022-09-09T16:23:50;18.13;;;10.45;;
55423;SDS011;41294;42.666;23.350;2022-09-09T16:26:18;19.10;;;10.32;;
55423;SDS011;41294;42.666;23.350;2022-09-09T16:28:44;19.27;;;10.10;;
55423;SDS011;41294;42.666;23.350;2022-09-09T16:31:12;24.75;;;9.95;;
55423;SDS011;41294;42.666;23.350;2022-09-09T16:33:40;23.35;;;10.68;;
55423;SDS011;41294;42.666;23.350;2022-09-09T16:36:07;17.23;;;9.93;;
55423;SDS011;41294;42.666;23.350;2022-09-09T16:38:33;16.48;;;9.43;;
55423;SDS011;41294;42.666;23.350;2022-09-09T16:41:00;19.75;;;9.80;;
55423;SDS011;41294;42.666;23.350;2022-09-09T16:46:12;16.85;;;10.07;;
55423;SDS011;41294;42.666;23.350;2022-09-09T16:48:40;16.02;;;11.02;;
55423;SDS011;41294;42.666;23.350;2022-09-09T16:51:07;20.30;;;10.73;;
55423;SDS011;41294;42.666;23.350;2022-09-09T16:53:37;16.90;;;11.20;;
55423;SDS011;41294;42.666;23.350;2022-09-09T16:56:06;18.02;;;11.15;;
55423;SDS011;41294;42.666;23.350;2022-09-09T16:58:32;15.27;;;10.60;;
55423;SDS011;41294;42.666;23.350;2022-09-09T17:00:58;19.02;;;11.05;;
55423;SDS011;41294;42.666;23.350;2022-09-09T17:03:24;16.23;;;10.82;;
55423;SDS011;41294;42.666;23.350;2022-09-09T17:05:50;19.67;;;11.32;;
55423;SDS011;41294;42.666;23.350;2022-09-09T17:08:15;29.05;;;15.00;;
55423;SDS011;41294;42.666;23.350;2022-09-09T17:10:41;24.10;;;14.65;;
55423;SDS011;41294;42.666;23.350;2022-09-09T17:13:07;26.52;;;13.13;;
55423;SDS011;41294;42.666;23.350;2022-09-09T17:15:33;17.08;;;12.13;;
55423;SDS011;41294;42.666;23.350;2022-09-09T17:17:59;18.33;;;12.85;;
55423;SDS011;41294;42.666;23.350;2022-09-09T17:20:25;23.27;;;13.45;;
55423;SDS011;41294;42.666;23.350;2022-09-09T17:22:50;19.42;;;12.65;;